<?xml version="1.0" encoding="UTF-8" standalone="no" ?>
<gpx xmlns="http://www.topografix.com/GPX/1/1" xmlns:xsi="http://www.w3.org/2001/XMLSchema-instance" xsi:schemaLocation="http://www.topografix.com/GPX/1/1 http://www.topografix.com/GPX/1/1/gpx.xsd" version="1.1" creator="VisuGPX - https://www.visugpx.com">
  <metadata>
    <name>OR-7874038--Arcon:arcon</name>
    <desc><![CDATA[sans balisage à faire avec la carte en main, rando facile.]]></desc>
  </metadata>
  <trk>
    <name><![CDATA[OR-7874038--Arcon:arcon]]></name>
    <trkseg>
      <trkpt lat="46.00084" lon="3.84187">
        <ele>1068</ele>
        <time>2017-09-17T19:01:31Z</time>
      </trkpt>
      <trkpt lat="45.99955" lon="3.8426">
        <ele>1067</ele>
        <time>2017-09-17T19:03:31Z</time>
      </trkpt>
      <trkpt lat="45.99782" lon="3.84389">
        <ele>1070</ele>
        <time>2017-09-17T19:05:31Z</time>
      </trkpt>
      <trkpt lat="45.99681" lon="3.84217">
        <ele>1072</ele>
        <time>2017-09-17T19:07:31Z</time>
      </trkpt>
      <trkpt lat="45.9955" lon="3.84144">
        <ele>1085</ele>
        <time>2017-09-17T19:09:31Z</time>
      </trkpt>
      <trkpt lat="45.99437" lon="3.8417">
        <ele>1092</ele>
        <time>2017-09-17T19:11:31Z</time>
      </trkpt>
      <trkpt lat="45.99299" lon="3.8411">
        <ele>1085</ele>
        <time>2017-09-17T19:13:31Z</time>
      </trkpt>
      <trkpt lat="45.99135" lon="3.84136">
        <ele>1088</ele>
        <time>2017-09-17T19:15:31Z</time>
      </trkpt>
      <trkpt lat="45.98995" lon="3.84174">
        <ele>1093</ele>
        <time>2017-09-17T19:17:31Z</time>
      </trkpt>
      <trkpt lat="45.98828" lon="3.84221">
        <ele>1094</ele>
        <time>2017-09-17T19:19:31Z</time>
      </trkpt>
      <trkpt lat="45.98632" lon="3.84475">
        <ele>1095</ele>
        <time>2017-09-17T19:21:31Z</time>
      </trkpt>
      <trkpt lat="45.98614" lon="3.84685">
        <ele>1086</ele>
        <time>2017-09-17T19:23:31Z</time>
      </trkpt>
      <trkpt lat="45.9862" lon="3.84981">
        <ele>1093</ele>
        <time>2017-09-17T19:25:31Z</time>
      </trkpt>
      <trkpt lat="45.98521" lon="3.85088">
        <ele>1081</ele>
        <time>2017-09-17T19:27:31Z</time>
      </trkpt>
      <trkpt lat="45.98348" lon="3.85166">
        <ele>1091</ele>
        <time>2017-09-17T19:29:31Z</time>
      </trkpt>
      <trkpt lat="45.98247" lon="3.85243">
        <ele>1096</ele>
        <time>2017-09-17T19:31:31Z</time>
      </trkpt>
      <trkpt lat="45.98089" lon="3.8499">
        <ele>1086</ele>
        <time>2017-09-17T19:33:31Z</time>
      </trkpt>
      <trkpt lat="45.97955" lon="3.84826">
        <ele>1071</ele>
        <time>2017-09-17T19:35:31Z</time>
      </trkpt>
      <trkpt lat="45.97758" lon="3.84981">
        <ele>1054</ele>
        <time>2017-09-17T19:37:31Z</time>
      </trkpt>
      <trkpt lat="45.97686" lon="3.85187">
        <ele>1043</ele>
        <time>2017-09-17T19:39:31Z</time>
      </trkpt>
      <trkpt lat="45.97725" lon="3.85329">
        <ele>1027</ele>
        <time>2017-09-17T19:41:31Z</time>
      </trkpt>
      <trkpt lat="45.97576" lon="3.85466">
        <ele>1015</ele>
        <time>2017-09-17T19:43:31Z</time>
      </trkpt>
      <trkpt lat="45.97546" lon="3.85706">
        <ele>997</ele>
        <time>2017-09-17T19:45:31Z</time>
      </trkpt>
      <trkpt lat="45.97358" lon="3.85805">
        <ele>982</ele>
        <time>2017-09-17T19:47:31Z</time>
      </trkpt>
      <trkpt lat="45.9717" lon="3.85886">
        <ele>980</ele>
        <time>2017-09-17T19:49:31Z</time>
      </trkpt>
      <trkpt lat="45.96997" lon="3.85878">
        <ele>982</ele>
        <time>2017-09-17T19:51:31Z</time>
      </trkpt>
      <trkpt lat="45.96788" lon="3.85573">
        <ele>970</ele>
        <time>2017-09-17T19:53:31Z</time>
      </trkpt>
      <trkpt lat="45.96472" lon="3.85526">
        <ele>967</ele>
        <time>2017-09-17T19:55:31Z</time>
      </trkpt>
      <trkpt lat="45.96338" lon="3.85612">
        <ele>971</ele>
        <time>2017-09-17T19:57:31Z</time>
      </trkpt>
      <trkpt lat="45.9621" lon="3.85942">
        <ele>969</ele>
        <time>2017-09-17T19:59:31Z</time>
      </trkpt>
      <trkpt lat="45.96141" lon="3.86238">
        <ele>969</ele>
        <time>2017-09-17T20:01:31Z</time>
      </trkpt>
      <trkpt lat="45.96589" lon="3.86582">
        <ele>1011</ele>
        <time>2017-09-17T20:03:31Z</time>
      </trkpt>
      <trkpt lat="45.96812" lon="3.86625">
        <ele>1018</ele>
        <time>2017-09-17T20:05:31Z</time>
      </trkpt>
      <trkpt lat="45.97048" lon="3.86676">
        <ele>1020</ele>
        <time>2017-09-17T20:07:31Z</time>
      </trkpt>
      <trkpt lat="45.97313" lon="3.86629">
        <ele>1027</ele>
        <time>2017-09-17T20:09:31Z</time>
      </trkpt>
      <trkpt lat="45.97445" lon="3.86432">
        <ele>1025</ele>
        <time>2017-09-17T20:11:31Z</time>
      </trkpt>
      <trkpt lat="45.97638" lon="3.8635">
        <ele>1027</ele>
        <time>2017-09-17T20:13:31Z</time>
      </trkpt>
      <trkpt lat="45.97874" lon="3.86457">
        <ele>1036</ele>
        <time>2017-09-17T20:15:31Z</time>
      </trkpt>
      <trkpt lat="45.9802" lon="3.86268">
        <ele>1039</ele>
        <time>2017-09-17T20:17:31Z</time>
      </trkpt>
      <trkpt lat="45.98131" lon="3.86346">
        <ele>1044</ele>
        <time>2017-09-17T20:19:31Z</time>
      </trkpt>
      <trkpt lat="45.98238" lon="3.86217">
        <ele>1047</ele>
        <time>2017-09-17T20:21:31Z</time>
      </trkpt>
      <trkpt lat="45.98181" lon="3.86015">
        <ele>1055</ele>
        <time>2017-09-17T20:23:31Z</time>
      </trkpt>
      <trkpt lat="45.98175" lon="3.85616">
        <ele>1079</ele>
        <time>2017-09-17T20:25:31Z</time>
      </trkpt>
      <trkpt lat="45.9833" lon="3.85693">
        <ele>1104</ele>
        <time>2017-09-17T20:27:31Z</time>
      </trkpt>
      <trkpt lat="45.98441" lon="3.85487">
        <ele>1123</ele>
        <time>2017-09-17T20:29:31Z</time>
      </trkpt>
      <trkpt lat="45.98497" lon="3.85612">
        <ele>1117</ele>
        <time>2017-09-17T20:31:31Z</time>
      </trkpt>
      <trkpt lat="45.98572" lon="3.85466">
        <ele>1122</ele>
        <time>2017-09-17T20:33:31Z</time>
      </trkpt>
      <trkpt lat="45.98828" lon="3.85363">
        <ele>1127</ele>
        <time>2017-09-17T20:35:31Z</time>
      </trkpt>
      <trkpt lat="45.98951" lon="3.85397">
        <ele>1125</ele>
        <time>2017-09-17T20:37:31Z</time>
      </trkpt>
      <trkpt lat="45.99138" lon="3.85316">
        <ele>1138</ele>
        <time>2017-09-17T20:39:31Z</time>
      </trkpt>
      <trkpt lat="45.99243" lon="3.85084">
        <ele>1139</ele>
        <time>2017-09-17T20:41:31Z</time>
      </trkpt>
      <trkpt lat="45.99478" lon="3.84925">
        <ele>1123</ele>
        <time>2017-09-17T20:43:31Z</time>
      </trkpt>
      <trkpt lat="45.99744" lon="3.84844">
        <ele>1105</ele>
        <time>2017-09-17T20:45:31Z</time>
      </trkpt>
      <trkpt lat="45.99875" lon="3.84483">
        <ele>1077</ele>
        <time>2017-09-17T20:47:31Z</time>
      </trkpt>
      <trkpt lat="45.99943" lon="3.84316">
        <ele>1071</ele>
        <time>2017-09-17T20:49:31Z</time>
      </trkpt>
      <trkpt lat="46.00107" lon="3.84273">
        <ele>1069</ele>
        <time>2017-09-17T20:51:31Z</time>
      </trkpt>
    </trkseg>
  </trk>
</gpx>